Time;durP1;ratioP1;P1;durP2;ratioP2;P2;SDS_P1;SDS_P2;PMS_P1;PMS_P2;Temp;Humidity;BMP_temperature;BMP_pressure;BME280_temperature;BME280_humidity;BME280_pressure;Samples;Min_cycle;Max_cycle;Signal;HPM_P1;HPM_P2
2023/08/11 00:02:05;;;;;;;2.42;2.10;;;21.60;59.50;23.30;101894.00;;;;5033637;28;20191;-79
2023/08/11 00:04:34;;;;;;;2.30;2.10;;;21.60;59.50;23.20;101894.00;;;;5049217;28;20214;-79
2023/08/11 00:07:04;;;;;;;6.50;2.50;;;21.50;59.50;23.20;101887.00;;;;5045556;28;20207;-80
2023/08/11 00:09:31;;;;;;;3.58;2.38;;;21.60;59.50;23.20;101886.00;;;;5050095;28;20196;-79
2023/08/11 00:11:58;;;;;;;3.47;1.88;;;21.60;59.50;23.20;101889.00;;;;5049219;28;20306;-79
2023/08/11 00:14:26;;;;;;;2.70;2.08;;;21.50;59.60;23.20;101888.00;;;;5048922;28;20188;-79
2023/08/11 00:16:53;;;;;;;2.97;2.20;;;21.50;59.60;23.20;101893.00;;;;5048259;28;20654;-79
2023/08/11 00:19:20;;;;;;;2.25;2.05;;;21.50;59.60;23.20;101889.00;;;;5040769;28;20199;-80
2023/08/11 00:21:48;;;;;;;2.70;1.90;;;21.50;59.60;23.20;101885.00;;;;5049620;28;20310;-79
2023/08/11 00:24:15;;;;;;;2.70;2.47;;;21.50;59.70;23.20;101893.00;;;;5049312;28;20222;-79
2023/08/11 00:26:42;;;;;;;2.47;2.28;;;21.50;59.70;23.20;101883.00;;;;5050760;28;20242;-80
2023/08/11 00:29:09;;;;;;;2.95;2.60;;;21.50;60.40;23.10;101890.00;;;;5049073;28;20195;-79
2023/08/11 00:31:36;;;;;;;3.83;3.00;;;21.50;59.80;23.10;101893.00;;;;5049500;28;20204;-80
2023/08/11 00:34:06;;;;;;;3.42;2.63;;;21.50;59.80;23.10;101892.00;;;;5048048;28;20204;-79
2023/08/11 00:36:34;;;;;;;3.00;2.63;;;21.40;59.80;23.10;101893.00;;;;5049463;28;20271;-79
2023/08/11 00:39:02;;;;;;;4.47;2.72;;;21.40;59.80;23.10;101893.00;;;;5048921;28;20211;-80
2023/08/11 00:41:30;;;;;;;3.28;2.97;;;21.40;59.90;23.10;101896.00;;;;5042541;28;20232;-79
2023/08/11 00:43:57;;;;;;;4.90;3.08;;;21.40;59.90;23.10;101893.00;;;;5049133;28;20314;-79
2023/08/11 00:46:25;;;;;;;3.35;3.03;;;21.40;60.00;23.10;101880.00;;;;5049377;28;20684;-80
2023/08/11 00:48:53;;;;;;;3.33;2.60;;;21.40;60.00;23.10;101887.00;;;;5049403;28;20195;-80
2023/08/11 00:51:24;;;;;;;2.60;2.40;;;21.40;60.00;23.00;101881.00;;;;5048296;28;20239;-80
2023/08/11 00:53:52;;;;;;;3.78;2.83;;;21.40;60.10;23.00;101873.00;;;;5048879;28;20199;-79
2023/08/11 00:56:22;;;;;;;3.65;2.75;;;21.40;60.00;23.00;101870.00;;;;5049415;28;20254;-79
2023/08/11 00:58:53;;;;;;;2.50;2.30;;;21.30;60.70;23.00;101863.00;;;;5048140;28;20318;-80
2023/08/11 01:01:20;;;;;;;2.80;2.50;;;21.30;60.10;23.00;101862.00;;;;5047172;28;20227;-80
2023/08/11 01:03:48;;;;;;;6.18;3.08;;;21.30;60.10;23.00;101862.00;;;;5041871;28;20200;-79
2023/08/11 01:06:39;;;;;;;2.83;2.45;;;21.30;60.20;22.80;101863.00;;;;5049946;28;20211;-79
2023/08/11 01:09:20;;;;;;;4.10;3.15;;;21.30;60.40;22.90;101871.00;;;;5036827;28;20204;-79
2023/08/11 01:12:00;;;;;;;3.33;3.03;;;21.30;60.30;22.90;101858.00;;;;5036843;28;20203;-80
2023/08/11 01:14:39;;;;;;;2.67;2.35;;;21.30;60.40;22.90;101861.00;;;;5045241;28;20211;-79
2023/08/11 01:17:13;;;;;;;2.42;2.22;;;21.30;60.50;22.90;101856.00;;;;5048690;28;20202;-80
2023/08/11 01:19:41;;;;;;;3.40;3.05;;;21.30;60.50;22.90;101847.00;;;;5048615;28;20827;-80
2023/08/11 01:22:19;;;;;;;3.58;3.28;;;21.30;60.40;22.80;101852.00;;;;5047869;28;20246;-80
2023/08/11 01:24:48;;;;;;;3.50;3.20;;;21.20;60.70;22.90;101846.00;;;;5047580;28;20670;-80
2023/08/11 01:27:15;;;;;;;3.30;3.00;;;21.20;60.50;22.90;101836.00;;;;5048139;28;20214;-80
2023/08/11 01:29:42;;;;;;;5.75;3.38;;;21.20;60.50;22.90;101843.00;;;;5045351;28;20206;-80
2023/08/11 01:32:09;;;;;;;4.57;3.35;;;21.20;60.50;22.90;101829.00;;;;5039015;28;20200;-80
2023/08/11 01:34:36;;;;;;;3.78;3.35;;;21.20;60.50;22.90;101840.00;;;;5044599;28;20697;-80
2023/08/11 01:37:04;;;;;;;5.88;3.40;;;21.20;60.60;22.80;101833.00;;;;5048360;28;20203;-79
2023/08/11 01:39:33;;;;;;;4.78;3.35;;;21.10;60.60;22.80;101831.00;;;;5043744;28;20276;-79
2023/08/11 01:42:02;;;;;;;3.67;3.33;;;21.20;60.70;22.80;101838.00;;;;5046192;28;20224;-79
2023/08/11 01:44:29;;;;;;;5.97;3.85;;;21.10;60.70;22.80;101824.00;;;;5047180;28;20223;-79
2023/08/11 01:46:58;;;;;;;4.63;3.78;;;21.10;60.70;22.80;101829.00;;;;5048056;28;20210;-80
2023/08/11 01:49:27;;;;;;;4.30;3.85;;;21.10;60.80;22.80;101836.00;;;;5047829;28;20609;-79
2023/08/11 01:51:56;;;;;;;10.57;3.92;;;21.10;60.80;22.80;101835.00;;;;5047427;28;20544;-80
2023/08/11 01:54:24;;;;;;;5.13;3.95;;;21.10;60.90;22.80;101841.00;;;;5048527;28;20223;-79
2023/08/11 01:56:53;;;;;;;4.78;4.20;;;21.10;60.90;22.70;101835.00;;;;5047393;28;20198;-80
2023/08/11 01:59:21;;;;;;;4.47;3.92;;;21.00;60.90;22.70;101835.00;;;;5047477;28;20239;-80
2023/08/11 02:01:48;;;;;;;3.97;3.60;;;21.00;61.00;22.70;101829.00;;;;5048608;28;20219;-80
2023/08/11 02:04:15;;;;;;;7.95;4.18;;;21.00;61.00;22.70;101828.00;;;;5047408;28;20208;-79
2023/08/11 02:06:42;;;;;;;4.10;3.55;;;21.00;61.00;22.70;101836.00;;;;5048125;28;20207;-80
2023/08/11 02:09:09;;;;;;;4.35;3.95;;;21.00;61.10;22.70;101823.00;;;;5047832;28;21090;-79
2023/08/11 02:11:37;;;;;;;4.13;3.78;;;21.00;61.10;22.70;101823.00;;;;5047440;28;20246;-80
2023/08/11 02:14:04;;;;;;;4.25;3.85;;;21.00;61.20;22.70;101819.00;;;;5047747;28;20210;-80
2023/08/11 02:16:34;;;;;;;4.93;4.03;;;21.00;61.50;22.60;101814.00;;;;5046516;28;20586;-80
2023/08/11 02:19:01;;;;;;;6.07;3.83;;;21.00;61.20;22.60;101819.00;;;;5046873;28;20203;-79
2023/08/11 02:21:29;;;;;;;4.85;3.67;;;21.00;61.20;22.60;101813.00;;;;5045621;28;20223;-79
2023/08/11 02:23:56;;;;;;;4.53;3.97;;;20.90;61.10;22.60;101816.00;;;;5047029;28;20572;-80
2023/08/11 02:26:23;;;;;;;5.32;4.28;;;20.90;61.20;22.60;101823.00;;;;5044541;28;20721;-80
2023/08/11 02:28:50;;;;;;;4.55;4.00;;;20.90;61.30;22.60;101818.00;;;;5048138;28;20195;-79
2023/08/11 02:31:18;;;;;;;6.45;4.97;;;20.90;61.30;22.60;101818.00;;;;5046968;28;20219;-80
2023/08/11 02:33:47;;;;;;;6.88;4.88;;;20.90;61.30;22.60;101823.00;;;;5044977;28;20258;-79
2023/08/11 02:36:15;;;;;;;6.32;4.07;;;20.90;61.40;22.50;101823.00;;;;5047357;28;20195;-80
2023/08/11 02:38:42;;;;;;;4.53;4.05;;;20.80;61.30;22.50;101826.00;;;;5047369;28;20187;-79
2023/08/11 02:41:09;;;;;;;4.75;4.22;;;20.80;61.40;22.50;101824.00;;;;5047385;28;20227;-80
2023/08/11 02:43:36;;;;;;;5.32;4.72;;;20.80;61.40;22.50;101824.00;;;;5047264;28;20214;-79
2023/08/11 02:46:05;;;;;;;5.18;4.68;;;20.80;61.50;22.50;101824.00;;;;5049765;28;20199;-80
2023/08/11 02:48:34;;;;;;;5.18;4.68;;;20.80;61.50;22.50;101828.00;;;;5051744;28;20904;-80
2023/08/11 02:51:02;;;;;;;6.07;4.68;;;20.80;61.50;22.50;101825.00;;;;5042535;28;20200;-80
2023/08/11 02:53:30;;;;;;;5.20;4.70;;;20.80;61.50;22.50;101827.00;;;;5051451;28;20199;-79
2023/08/11 02:55:57;;;;;;;4.97;4.47;;;20.80;61.50;22.50;101823.00;;;;5051691;28;20200;-79
2023/08/11 02:58:24;;;;;;;5.72;5.20;;;20.80;61.60;22.40;101827.00;;;;5050861;28;20210;-80
2023/08/11 03:00:51;;;;;;;8.40;5.30;;;20.80;61.60;22.40;101832.00;;;;5050078;28;20230;-79
2023/08/11 03:03:18;;;;;;;5.03;4.28;;;20.70;61.60;22.40;101826.00;;;;5050499;28;20199;-79
2023/08/11 03:05:45;;;;;;;5.70;4.55;;;20.70;61.60;22.40;101828.00;;;;5045451;28;20768;-80
2023/08/11 03:08:13;;;;;;;5.65;4.93;;;20.70;61.60;22.40;101829.00;;;;5042323;28;20203;-80
2023/08/11 03:10:40;;;;;;;4.65;4.25;;;20.70;61.60;22.40;101818.00;;;;5042091;28;20214;-80
2023/08/11 03:13:07;;;;;;;6.40;4.18;;;20.70;61.60;22.40;101812.00;;;;5043561;28;20196;-79
2023/08/11 03:15:35;;;;;;;6.90;5.22;;;20.70;61.70;22.40;101812.00;;;;5048319;28;20212;-79
2023/08/11 03:18:02;;;;;;;6.75;5.55;;;20.70;61.70;22.30;101805.00;;;;5039047;28;20215;-79
2023/08/11 03:20:29;;;;;;;5.03;4.50;;;20.60;61.70;22.30;101808.00;;;;5046951;28;20214;-79
2023/08/11 03:22:56;;;;;;;5.63;4.78;;;20.70;61.80;22.30;101809.00;;;;5050051;28;20196;-80
2023/08/11 03:25:24;;;;;;;5.30;4.70;;;20.60;61.70;22.30;101808.00;;;;5049749;28;20209;-79
2023/08/11 03:27:51;;;;;;;5.72;4.72;;;20.60;61.80;22.30;101806.00;;;;5045007;28;20647;-80
2023/08/11 03:30:18;;;;;;;4.57;4.15;;;20.60;62.20;22.30;101800.00;;;;5029072;28;20211;-80
2023/08/11 03:32:46;;;;;;;6.13;5.30;;;20.60;61.80;22.30;101810.00;;;;5051558;28;20214;-79
2023/08/11 03:35:13;;;;;;;9.20;5.38;;;20.60;61.80;22.30;101798.00;;;;5048904;28;20242;-80
2023/08/11 03:37:40;;;;;;;6.70;5.07;;;20.60;61.90;22.20;101797.00;;;;5050702;28;20203;-79
2023/08/11 03:40:12;;;;;;;6.90;5.70;;;20.50;61.80;22.20;101802.00;;;;5049565;28;20200;-79
2023/08/11 03:42:41;;;;;;;5.13;4.60;;;20.50;61.90;22.20;101803.00;;;;5047653;28;20231;-79
2023/08/11 03:45:11;;;;;;;5.30;4.80;;;20.50;61.90;22.20;101798.00;;;;5039294;28;20248;-79
2023/08/11 03:47:39;;;;;;;5.82;5.22;;;20.50;61.90;22.20;101808.00;;;;5031083;28;20199;-79
2023/08/11 03:50:08;;;;;;;5.93;5.25;;;20.50;62.00;22.20;101804.00;;;;5040173;28;20216;-79
2023/08/11 03:52:35;;;;;;;6.93;5.38;;;20.50;62.00;22.20;101806.00;;;;5049508;28;20192;-80
2023/08/11 03:55:03;;;;;;;6.03;5.43;;;20.50;62.10;22.10;101803.00;;;;5049862;28;20249;-80
2023/08/11 03:57:30;;;;;;;7.18;6.15;;;20.50;62.10;22.10;101799.00;;;;5045722;28;20203;-80
2023/08/11 03:59:59;;;;;;;6.03;5.40;;;20.40;62.10;22.10;101800.00;;;;5042220;28;20235;-79
2023/08/11 04:02:26;;;;;;;7.20;6.35;;;20.40;62.20;22.10;101790.00;;;;5039936;28;20250;-80
2023/08/11 04:04:53;;;;;;;7.95;6.50;;;20.40;62.10;22.10;101785.00;;;;5050027;28;20728;-79
2023/08/11 04:07:20;;;;;;;6.22;5.63;;;20.40;62.20;22.10;101785.00;;;;5049988;28;20195;-79
2023/08/11 04:09:48;;;;;;;6.75;5.68;;;20.40;62.20;22.10;101790.00;;;;5049831;28;20280;-80
2023/08/11 04:12:15;;;;;;;7.13;6.43;;;20.40;62.20;22.10;101795.00;;;;5045423;28;20898;-80
2023/08/11 04:14:42;;;;;;;6.70;6.00;;;20.40;62.20;22.10;101793.00;;;;5049409;28;20258;-80
2023/08/11 04:17:13;;;;;;;7.88;5.93;;;20.40;62.30;22.00;101787.00;;;;5050261;28;20235;-80
2023/08/11 04:19:41;;;;;;;10.05;6.53;;;20.30;62.30;22.10;101787.00;;;;5039906;28;20199;-80
2023/08/11 04:22:08;;;;;;;7.70;6.38;;;20.40;62.40;22.00;101791.00;;;;5047757;28;20230;-80
2023/08/11 04:24:36;;;;;;;8.15;5.93;;;20.30;62.30;22.10;101791.00;;;;5049538;28;21012;-80
2023/08/11 04:27:03;;;;;;;6.97;6.22;;;20.30;62.30;22.00;101787.00;;;;5048418;28;20206;-80
2023/08/11 04:29:30;;;;;;;6.18;5.57;;;20.30;62.40;22.00;101780.00;;;;5049500;28;20203;-80
2023/08/11 04:31:57;;;;;;;9.32;6.35;;;20.30;62.40;22.00;101781.00;;;;5047979;28;20204;-80
2023/08/11 04:34:25;;;;;;;7.25;6.15;;;20.30;62.50;22.00;101778.00;;;;5049640;28;20198;-80
2023/08/11 04:36:52;;;;;;;7.15;6.32;;;20.30;62.50;22.00;101779.00;;;;5049067;28;20199;-80
2023/08/11 04:39:19;;;;;;;6.90;6.03;;;20.30;62.50;22.00;101780.00;;;;5048810;28;20207;-80
2023/08/11 04:41:46;;;;;;;8.38;7.05;;;20.30;62.60;22.00;101780.00;;;;5047966;28;20216;-80
2023/08/11 04:44:14;;;;;;;6.88;6.00;;;20.30;62.60;22.00;101772.00;;;;5042215;28;20216;-80
2023/08/11 04:46:41;;;;;;;9.50;6.55;;;20.30;62.60;22.00;101771.00;;;;5049762;28;20651;-80
2023/08/11 04:49:08;;;;;;;7.63;6.35;;;20.30;62.70;22.00;101776.00;;;;5048693;28;21078;-80
2023/08/11 04:51:36;;;;;;;7.20;6.50;;;20.30;62.70;22.00;101773.00;;;;5048012;28;20195;-80
2023/08/11 04:54:04;;;;;;;8.63;7.00;;;20.30;62.80;22.00;101766.00;;;;5048253;28;20202;-80
2023/08/11 04:56:31;;;;;;;7.15;6.45;;;20.30;62.80;22.00;101769.00;;;;5049262;28;20215;-80
2023/08/11 04:58:58;;;;;;;9.65;7.63;;;20.30;62.80;22.00;101765.00;;;;5048413;28;20203;-80
2023/08/11 05:01:25;;;;;;;8.82;6.35;;;20.30;63.00;22.00;101756.00;;;;5047626;28;20235;-80
2023/08/11 05:03:52;;;;;;;7.68;6.10;;;20.30;63.00;22.00;101760.00;;;;5047281;28;20199;-80
2023/08/11 05:06:20;;;;;;;15.85;7.93;;;20.30;63.10;22.10;101762.00;;;;5047056;28;20191;-80
2023/08/11 05:08:48;;;;;;;8.13;6.90;;;20.30;63.10;22.10;101757.00;;;;5048507;28;20202;-80
2023/08/11 05:11:15;;;;;;;7.30;6.60;;;20.40;63.20;22.10;101753.00;;;;5048215;28;20199;-80
2023/08/11 05:13:43;;;;;;;8.43;6.22;;;20.40;63.30;22.10;101763.00;;;;5046980;28;20683;-80
2023/08/11 05:16:10;;;;;;;7.78;6.22;;;20.40;63.30;22.10;101755.00;;;;5048515;28;20199;-80
2023/08/11 05:18:37;;;;;;;8.52;7.00;;;20.40;63.30;22.20;101752.00;;;;5048806;28;20203;-80
2023/08/11 05:21:05;;;;;;;7.28;6.57;;;20.50;63.40;22.20;101751.00;;;;5048354;28;20199;-80
2023/08/11 05:23:32;;;;;;;7.47;6.30;;;20.50;63.30;22.20;101740.00;;;;5041136;28;21208;-81
2023/08/11 05:26:01;;;;;;;9.82;7.07;;;20.50;63.30;22.30;101735.00;;;;5031239;28;20550;-81
2023/08/11 05:28:28;;;;;;;8.55;6.38;;;20.60;63.40;22.30;101742.00;;;;5048588;28;20215;-78
2023/08/11 05:30:56;;;;;;;7.95;6.50;;;20.60;63.30;22.30;101740.00;;;;5048376;28;20187;-79
2023/08/11 05:33:24;;;;;;;7.97;7.18;;;20.60;63.30;22.40;101746.00;;;;5048692;28;20277;-78
2023/08/11 05:35:52;;;;;;;9.98;7.30;;;20.60;63.30;22.40;101750.00;;;;5048091;28;20226;-78
2023/08/11 05:38:22;;;;;;;7.88;7.03;;;20.70;63.30;22.50;101753.00;;;;5047394;28;20857;-79
2023/08/11 05:40:49;;;;;;;8.65;7.80;;;20.80;63.40;22.50;101743.00;;;;5046353;28;20246;-79
2023/08/11 05:43:18;;;;;;;9.07;7.30;;;20.80;63.30;22.60;101754.00;;;;5038618;28;20223;-78
2023/08/11 05:45:45;;;;;;;11.23;7.72;;;20.80;63.40;22.60;101756.00;;;;5046896;28;20200;-78
2023/08/11 05:48:12;;;;;;;10.35;7.68;;;20.90;63.40;22.70;101762.00;;;;5044755;28;20208;-78
2023/08/11 05:50:40;;;;;;;8.75;7.90;;;20.90;63.20;22.70;101759.00;;;;5040974;28;20597;-78
2023/08/11 05:53:07;;;;;;;8.38;7.32;;;21.00;63.30;22.80;101760.00;;;;5046325;28;20207;-79
2023/08/11 05:55:34;;;;;;;10.27;8.32;;;21.00;63.20;22.80;101758.00;;;;5032662;28;20192;-78
2023/08/11 05:58:01;;;;;;;8.70;7.03;;;21.10;63.20;22.90;101763.00;;;;5044143;28;20246;-79
2023/08/11 06:00:29;;;;;;;8.48;7.68;;;21.20;63.20;22.90;101757.00;;;;5046677;28;20590;-78
2023/08/11 06:02:56;;;;;;;8.77;7.88;;;21.20;63.10;23.00;101755.00;;;;5047413;28;20239;-78
2023/08/11 06:05:23;;;;;;;9.93;8.07;;;21.30;63.20;23.10;101754.00;;;;5047546;28;20234;-78
2023/08/11 06:07:51;;;;;;;8.80;7.90;;;21.30;63.00;23.10;101755.00;;;;5047049;28;20191;-79
2023/08/11 06:10:18;;;;;;;8.27;7.43;;;21.40;62.90;23.20;101754.00;;;;5045358;28;20214;-78
2023/08/11 06:12:45;;;;;;;8.77;7.70;;;21.50;63.00;23.30;101751.00;;;;5048370;28;20199;-78
2023/08/11 06:15:12;;;;;;;9.13;7.82;;;21.50;62.90;23.30;101752.00;;;;5042133;28;20199;-78
2023/08/11 06:17:40;;;;;;;11.07;8.00;;;21.60;62.90;23.40;101756.00;;;;5044672;28;20196;-78
2023/08/11 06:20:10;;;;;;;9.57;8.27;;;21.70;63.00;23.50;101744.00;;;;5047004;28;20207;-77
2023/08/11 06:22:37;;;;;;;9.35;8.25;;;21.80;62.90;23.50;101742.00;;;;5047077;28;20222;-77
2023/08/11 06:25:06;;;;;;;9.32;8.00;;;21.80;62.80;23.60;101749.00;;;;5047526;28;20195;-80
2023/08/11 06:27:33;;;;;;;9.13;7.40;;;21.90;62.80;23.70;101756.00;;;;5047837;28;20262;-78
2023/08/11 06:30:01;;;;;;;8.75;7.68;;;21.90;62.70;23.80;101758.00;;;;5047785;28;20230;-78
2023/08/11 06:32:28;;;;;;;8.52;7.70;;;22.00;62.70;23.80;101759.00;;;;5040982;28;20241;-77
2023/08/11 06:34:57;;;;;;;8.82;7.72;;;22.10;62.60;23.90;101767.00;;;;5045109;28;20272;-78
2023/08/11 06:37:23;;;;;;;10.40;7.07;;;22.20;62.60;24.00;101765.00;;;;5045655;28;20215;-78
2023/08/11 06:39:51;;;;;;;9.35;8.40;;;22.30;62.50;24.00;101768.00;;;;5045005;28;20202;-78
2023/08/11 06:42:18;;;;;;;12.25;8.75;;;22.30;62.40;24.10;101769.00;;;;5045410;28;20306;-79
2023/08/11 06:44:45;;;;;;;10.73;8.43;;;22.40;62.40;24.20;101769.00;;;;5044579;28;20211;-79
2023/08/11 06:47:12;;;;;;;10.65;9.05;;;22.50;62.40;24.30;101771.00;;;;5045181;28;20199;-78
2023/08/11 06:49:39;;;;;;;9.70;8.60;;;22.50;62.30;24.30;101768.00;;;;5041284;28;20204;-78
2023/08/11 06:52:08;;;;;;;11.32;8.30;;;22.60;62.20;24.40;101771.00;;;;5035164;28;20204;-79
2023/08/11 06:54:35;;;;;;;10.27;8.05;;;22.70;62.10;24.50;101766.00;;;;5042165;28;20211;-78
2023/08/11 06:57:04;;;;;;;10.38;8.52;;;22.80;62.10;24.50;101770.00;;;;5044214;28;20595;-78
2023/08/11 06:59:31;;;;;;;10.75;7.55;;;22.80;62.00;24.60;101773.00;;;;5045500;28;20322;-78
2023/08/11 07:01:58;;;;;;;8.73;7.50;;;22.90;62.00;24.70;101773.00;;;;5041945;28;20238;-77
2023/08/11 07:04:25;;;;;;;9.38;8.13;;;23.00;62.10;24.80;101773.00;;;;5043749;28;20210;-78
2023/08/11 07:06:54;;;;;;;10.77;8.98;;;23.10;62.00;24.80;101785.00;;;;5045334;28;20206;-79
2023/08/11 07:09:24;;;;;;;9.68;8.13;;;23.10;61.70;24.90;101782.00;;;;5047657;28;20314;-78
2023/08/11 07:11:51;;;;;;;9.77;8.52;;;23.20;61.60;25.00;101780.00;;;;5048148;28;20184;-78
2023/08/11 07:14:18;;;;;;;9.52;8.57;;;23.30;61.70;25.00;101774.00;;;;5047530;28;20200;-79
2023/08/11 07:16:45;;;;;;;14.40;8.57;;;23.30;61.60;25.10;101778.00;;;;5047103;28;20196;-78
2023/08/11 07:19:12;;;;;;;10.13;7.85;;;23.40;61.60;25.20;101779.00;;;;5042933;28;20211;-78
2023/08/11 07:21:39;;;;;;;14.88;8.38;;;23.50;61.60;25.30;101777.00;;;;5041464;28;20597;-79
2023/08/11 07:24:07;;;;;;;9.25;8.00;;;23.60;61.60;25.40;101771.00;;;;5037385;28;20234;-79
2023/08/11 07:26:35;;;;;;;11.52;8.38;;;23.70;61.50;25.40;101777.00;;;;5035150;28;20578;-80
2023/08/11 07:29:02;;;;;;;9.52;8.50;;;23.70;61.30;25.50;101775.00;;;;5035278;28;20211;-79
2023/08/11 07:31:29;;;;;;;8.48;7.63;;;23.80;61.20;25.60;101772.00;;;;5042098;28;20196;-79
2023/08/11 07:33:56;;;;;;;10.65;8.10;;;23.90;61.10;25.70;101770.00;;;;5043792;28;20208;-79
2023/08/11 07:36:23;;;;;;;8.18;7.32;;;24.00;61.10;25.70;101772.00;;;;5040839;28;20200;-79
2023/08/11 07:38:51;;;;;;;8.55;7.25;;;24.10;61.10;25.80;101768.00;;;;5043349;28;20198;-79
2023/08/11 07:41:18;;;;;;;8.98;7.35;;;24.20;61.20;25.90;101768.00;;;;5044701;28;20207;-79
2023/08/11 07:43:46;;;;;;;10.45;8.45;;;24.20;60.90;26.00;101777.00;;;;5050193;28;20257;-80
2023/08/11 07:46:13;;;;;;;8.43;7.57;;;24.30;60.70;26.10;101766.00;;;;5049928;28;20294;-80
2023/08/11 07:48:40;;;;;;;16.85;8.93;;;24.40;60.60;26.20;101777.00;;;;5049515;28;20703;-80
2023/08/11 07:51:07;;;;;;;11.52;8.45;;;24.50;60.50;26.20;101780.00;;;;5044572;28;20200;-80
2023/08/11 07:53:36;;;;;;;8.85;7.70;;;24.60;60.20;26.30;101787.00;;;;5047243;28;20188;-79
2023/08/11 07:56:04;;;;;;;13.88;8.05;;;24.70;60.20;26.40;101782.00;;;;5042997;28;20199;-80
2023/08/11 07:58:31;;;;;;;9.00;8.05;;;24.70;60.10;26.50;101780.00;;;;5029266;28;20200;-80
2023/08/11 08:01:01;;;;;;;10.00;7.60;;;24.80;60.20;26.60;101776.00;;;;5029422;28;20228;-79
2023/08/11 08:03:28;;;;;;;12.75;8.02;;;24.90;60.20;26.70;101779.00;;;;5049325;28;20223;-80
2023/08/11 08:05:55;;;;;;;10.32;7.55;;;25.00;60.20;26.80;101776.00;;;;5046550;28;20264;-82
2023/08/11 08:08:22;;;;;;;9.30;7.65;;;25.10;60.10;26.90;101779.00;;;;5047634;28;20203;-79
2023/08/11 08:10:49;;;;;;;8.18;6.82;;;25.20;59.90;27.00;101779.00;;;;5045239;28;20203;-80
2023/08/11 08:13:18;;;;;;;7.25;6.50;;;25.30;60.00;27.00;101777.00;;;;5038811;28;20204;-81
2023/08/11 08:15:45;;;;;;;7.50;6.72;;;25.40;60.00;27.20;101780.00;;;;5033676;28;20294;-81
2023/08/11 08:18:22;;;;;;;8.80;7.13;;;25.50;60.10;27.20;101773.00;;;;5046587;28;20200;-80
2023/08/11 08:20:49;;;;;;;11.93;6.45;;;25.60;59.90;27.40;101773.00;;;;5046229;28;20199;-80
2023/08/11 08:23:17;;;;;;;7.93;6.82;;;25.70;60.10;27.50;101772.00;;;;5050241;28;20607;-80
2023/08/11 08:25:44;;;;;;;9.80;6.95;;;25.80;60.00;27.60;101770.00;;;;5048291;28;20207;-80
2023/08/11 08:28:11;;;;;;;7.60;6.78;;;25.90;59.80;27.70;101770.00;;;;5047498;28;20579;-80
2023/08/11 08:30:38;;;;;;;6.75;5.85;;;26.00;59.60;27.80;101767.00;;;;5046636;28;20192;-78
2023/08/11 08:33:07;;;;;;;8.20;6.00;;;26.20;59.50;28.00;101776.00;;;;5047331;28;20206;-79
2023/08/11 08:35:37;;;;;;;6.65;5.75;;;26.30;59.60;28.10;101775.00;;;;5049057;28;20216;-79
2023/08/11 08:38:05;;;;;;;5.90;5.03;;;26.40;59.40;28.20;101777.00;;;;5046693;28;20203;-79
2023/08/11 08:40:35;;;;;;;7.97;5.53;;;26.50;59.30;28.30;101773.00;;;;5047391;28;20294;-79
2023/08/11 08:43:03;;;;;;;6.57;5.70;;;26.70;59.10;28.50;101773.00;;;;5045124;28;20228;-79
2023/08/11 08:45:31;;;;;;;5.72;5.10;;;26.80;58.90;28.60;101781.00;;;;5047678;28;20632;-80
2023/08/11 08:48:00;;;;;;;5.88;5.07;;;26.90;58.80;28.70;101773.00;;;;5046298;28;21018;-80
2023/08/11 08:50:29;;;;;;;5.55;4.78;;;27.00;58.70;28.80;101780.00;;;;5045573;28;20215;-80
2023/08/11 08:53:01;;;;;;;4.57;4.15;;;27.20;58.50;28.90;101769.00;;;;5049456;28;20207;-80
2023/08/11 08:55:28;;;;;;;5.57;4.55;;;27.30;58.10;29.00;101775.00;;;;5044774;28;20199;-80
2023/08/11 08:57:56;;;;;;;5.25;4.28;;;27.40;58.20;29.10;101775.00;;;;5043344;28;20682;-81
2023/08/11 09:00:23;;;;;;;6.53;5.13;;;27.50;58.00;29.30;101770.00;;;;5047034;28;21047;-81
2023/08/11 09:02:51;;;;;;;6.35;4.40;;;27.70;58.10;29.40;101769.00;;;;5038660;28;20227;-81
2023/08/11 09:05:18;;;;;;;5.18;4.50;;;27.80;57.90;29.50;101776.00;;;;5043365;28;20203;-81
2023/08/11 09:07:46;;;;;;;7.10;4.07;;;27.90;57.70;29.70;101775.00;;;;5047861;28;20195;-81
2023/08/11 09:10:14;;;;;;;4.40;3.67;;;28.10;57.60;29.80;101773.00;;;;5046714;28;20293;-81
2023/08/11 09:12:44;;;;;;;5.20;3.70;;;28.20;57.40;29.90;101773.00;;;;5046648;28;20203;-82
2023/08/11 09:15:13;;;;;;;4.40;3.75;;;28.30;57.40;30.10;101781.00;;;;5048743;28;21065;-79
2023/08/11 09:17:41;;;;;;;4.50;3.67;;;28.40;57.10;30.20;101779.00;;;;5044832;28;20282;-79
2023/08/11 09:20:13;;;;;;;5.25;3.70;;;28.60;57.10;30.30;101781.00;;;;5045654;28;20199;-80
2023/08/11 09:22:41;;;;;;;4.57;4.13;;;28.70;56.90;30.40;101785.00;;;;5044704;28;20198;-79
2023/08/11 09:25:10;;;;;;;5.28;4.03;;;28.80;56.60;30.40;101788.00;;;;5041829;28;20201;-81
2023/08/11 09:27:39;;;;;;;4.68;3.83;;;28.90;56.40;30.50;101785.00;;;;5044694;28;20195;-80
2023/08/11 09:30:10;;;;;;;4.78;4.10;;;29.00;56.20;30.50;101779.00;;;;5046491;28;20196;-81
2023/08/11 09:32:38;;;;;;;4.70;3.38;;;29.00;56.10;30.60;101791.00;;;;5047002;28;20206;-80
2023/08/11 09:35:09;;;;;;;5.60;3.75;;;29.10;56.10;30.70;101783.00;;;;5041685;28;20208;-80
2023/08/11 09:37:40;;;;;;;4.47;3.33;;;29.20;55.80;30.80;101778.00;;;;5044455;28;20231;-81
2023/08/11 09:40:09;;;;;;;6.40;3.95;;;29.30;56.10;30.90;101784.00;;;;5043302;28;20779;-82
2023/08/11 09:42:38;;;;;;;4.45;3.65;;;29.40;56.20;31.00;101770.00;;;;5047073;28;20200;-80
2023/08/11 09:45:07;;;;;;;3.83;3.40;;;29.50;56.30;31.10;101786.00;;;;5041564;28;20342;-84
2023/08/11 09:47:34;;;;;;;5.40;3.15;;;29.60;56.00;31.20;101779.00;;;;5041226;28;20202;-82
2023/08/11 09:50:01;;;;;;;4.57;3.50;;;29.70;56.00;31.30;101776.00;;;;5041181;28;20627;-81
2023/08/11 09:52:34;;;;;;;6.72;3.65;;;29.80;55.80;31.40;101777.00;;;;5044996;28;20233;-82
2023/08/11 09:55:06;;;;;;;4.10;3.33;;;29.90;55.40;31.40;101777.00;;;;5038086;28;20675;-81
2023/08/11 09:57:34;;;;;;;3.25;2.78;;;29.90;54.90;31.50;101779.00;;;;5036351;28;20577;-81
2023/08/11 10:00:11;;;;;;;4.85;3.22;;;30.00;54.70;31.50;101781.00;;;;5042803;28;20223;-81
2023/08/11 10:02:44;;;;;;;3.25;2.95;;;30.10;54.70;31.60;101778.00;;;;5044912;28;20233;-81
2023/08/11 10:05:14;;;;;;;3.35;2.75;;;30.20;54.70;31.60;101786.00;;;;5041204;28;20286;-82
2023/08/11 10:07:45;;;;;;;3.58;3.00;;;30.20;54.50;31.70;101774.00;;;;5042427;28;21956;-80
2023/08/11 10:10:18;;;;;;;4.22;3.10;;;30.30;54.40;31.70;101785.00;;;;5038548;28;20214;-81
2023/08/11 10:12:56;;;;;;;3.70;2.67;;;30.30;54.50;31.80;101794.00;;;;5037208;28;20659;-81
2023/08/11 10:15:27;;;;;;;2.75;2.42;;;30.40;54.20;31.90;101784.00;;;;5043827;28;20207;-81
2023/08/11 10:17:54;;;;;;;3.90;2.90;;;30.50;54.30;32.00;101785.00;;;;5042206;28;20198;-81
2023/08/11 10:20:23;;;;;;;3.67;2.92;;;30.50;54.30;32.10;101794.00;;;;5038348;28;20188;-81
2023/08/11 10:22:50;;;;;;;3.33;2.85;;;30.70;54.50;32.20;101793.00;;;;5021522;28;20200;-83
2023/08/11 10:25:18;;;;;;;4.03;2.80;;;30.80;54.40;32.30;101791.00;;;;5031233;28;20208;-82
2023/08/11 10:27:47;;;;;;;2.65;2.17;;;30.80;53.90;32.40;101787.00;;;;5041665;28;20204;-82
2023/08/11 10:30:15;;;;;;;3.40;2.38;;;30.90;53.80;32.40;101778.00;;;;5045484;28;20203;-81
2023/08/11 10:32:44;;;;;;;2.15;1.95;;;31.00;53.60;32.50;101787.00;;;;5047488;28;20200;-82
2023/08/11 10:35:19;;;;;;;2.78;1.65;;;31.10;53.40;32.50;101781.00;;;;5040682;28;20699;-80
2023/08/11 10:37:58;;;;;;;2.50;1.95;;;31.20;52.90;32.60;101785.00;;;;5041076;28;20264;-81
2023/08/11 10:40:34;;;;;;;4.72;2.00;;;31.30;52.30;32.60;101775.00;;;;5038338;28;20590;-80
2023/08/11 10:43:03;;;;;;;2.28;2.05;;;31.40;52.70;32.70;101773.00;;;;5039377;28;20680;-81
2023/08/11 10:45:33;;;;;;;3.35;2.17;;;31.40;52.30;32.80;101778.00;;;;5042540;28;20199;-81
2023/08/11 10:48:08;;;;;;;3.42;1.80;;;31.50;52.30;32.80;101779.00;;;;5040702;28;20203;-81
2023/08/11 10:50:38;;;;;;;2.55;2.10;;;31.60;51.90;32.90;101778.00;;;;5046830;28;20653;-81
2023/08/11 10:53:18;;;;;;;2.92;1.80;;;31.60;52.20;32.90;101775.00;;;;5046553;28;20199;-81